sensor_id;sensor_type;location;lat;lon;timestamp;pressure;altitude;pressure_sealevel;temperature;humidity
15529;BME280;7866;52.280;9.500;2023-04-25T00:02:09;99415.41;;;7.81;83.87
15529;BME280;7866;52.280;9.500;2023-04-25T00:07:11;99405.81;;;7.72;84.34
15529;BME280;7866;52.280;9.500;2023-04-25T00:12:12;99396.97;;;7.72;84.58
15529;BME280;7866;52.280;9.500;2023-04-25T00:17:16;99417.81;;;7.68;83.45
15529;BME280;7866;52.280;9.500;2023-04-25T00:22:19;99419.47;;;7.69;83.97
15529;BME280;7866;52.280;9.500;2023-04-25T00:27:21;99420.81;;;7.65;83.45
15529;BME280;7866;52.280;9.500;2023-04-25T00:32:23;99418.50;;;7.62;83.42
15529;BME280;7866;52.280;9.500;2023-04-25T00:37:25;99420.00;;;7.64;84.19
15529;BME280;7866;52.280;9.500;2023-04-25T00:42:27;99417.34;;;7.56;84.69
15529;BME280;7866;52.280;9.500;2023-04-25T00:47:32;99416.31;;;7.65;84.09
15529;BME280;7866;52.280;9.500;2023-04-25T00:52:34;99422.84;;;7.63;83.53
15529;BME280;7866;52.280;9.500;2023-04-25T00:57:36;99416.88;;;7.53;84.67
15529;BME280;7866;52.280;9.500;2023-04-25T01:02:39;99416.00;;;7.60;83.90
15529;BME280;7866;52.280;9.500;2023-04-25T01:07:41;99412.81;;;7.65;83.69
15529;BME280;7866;52.280;9.500;2023-04-25T01:12:42;99405.88;;;7.56;84.75
15529;BME280;7866;52.280;9.500;2023-04-25T01:17:45;99414.88;;;7.55;84.92
15529;BME280;7866;52.280;9.500;2023-04-25T01:22:52;99415.00;;;7.61;85.03
15529;BME280;7866;52.280;9.500;2023-04-25T01:27:53;99413.31;;;7.69;84.46
15529;BME280;7866;52.280;9.500;2023-04-25T01:32:56;99414.50;;;7.58;84.81
15529;BME280;7866;52.280;9.500;2023-04-25T01:38:00;99412.22;;;7.55;85.83
15529;BME280;7866;52.280;9.500;2023-04-25T01:43:02;99414.22;;;7.53;86.64
15529;BME280;7866;52.280;9.500;2023-04-25T01:48:04;99427.75;;;7.35;87.43
15529;BME280;7866;52.280;9.500;2023-04-25T01:53:09;99434.69;;;7.52;86.89
15529;BME280;7866;52.280;9.500;2023-04-25T01:58:11;99437.34;;;7.52;88.24
15529;BME280;7866;52.280;9.500;2023-04-25T02:03:13;99440.84;;;7.53;88.37
15529;BME280;7866;52.280;9.500;2023-04-25T02:08:17;99451.72;;;7.43;88.58
15529;BME280;7866;52.280;9.500;2023-04-25T02:13:18;99449.88;;;7.44;88.66
15529;BME280;7866;52.280;9.500;2023-04-25T02:18:20;99457.53;;;7.47;89.54
15529;BME280;7866;52.280;9.500;2023-04-25T02:23:23;99467.34;;;7.38;89.81
15529;BME280;7866;52.280;9.500;2023-04-25T02:28:42;99496.19;;;7.26;90.58
15529;BME280;7866;52.280;9.500;2023-04-25T02:33:44;99496.53;;;7.15;89.12
15529;BME280;7866;52.280;9.500;2023-04-25T02:38:47;99479.84;;;7.29;88.42
15529;BME280;7866;52.280;9.500;2023-04-25T02:43:49;99495.53;;;7.16;88.21
15529;BME280;7866;52.280;9.500;2023-04-25T02:48:50;99493.53;;;7.34;88.25
15529;BME280;7866;52.280;9.500;2023-04-25T02:53:53;99478.38;;;7.35;88.06
15529;BME280;7866;52.280;9.500;2023-04-25T02:58:55;99487.34;;;7.34;88.01
15529;BME280;7866;52.280;9.500;2023-04-25T03:03:56;99486.88;;;7.22;88.16
15529;BME280;7866;52.280;9.500;2023-04-25T03:08:59;99489.03;;;7.35;87.95
15529;BME280;7866;52.280;9.500;2023-04-25T03:14:01;99498.00;;;7.26;87.74
15529;BME280;7866;52.280;9.500;2023-04-25T03:19:03;99498.69;;;7.28;88.52
15529;BME280;7866;52.280;9.500;2023-04-25T03:24:07;99511.00;;;7.04;88.48
15529;BME280;7866;52.280;9.500;2023-04-25T03:29:08;99514.69;;;7.03;88.32
15529;BME280;7866;52.280;9.500;2023-04-25T03:34:10;99518.50;;;7.01;89.03
15529;BME280;7866;52.280;9.500;2023-04-25T03:39:13;99522.66;;;6.87;88.97
15529;BME280;7866;52.280;9.500;2023-04-25T03:44:15;99527.63;;;6.90;88.84
15529;BME280;7866;52.280;9.500;2023-04-25T03:49:16;99517.66;;;6.84;88.49
15529;BME280;7866;52.280;9.500;2023-04-25T03:54:19;99519.16;;;6.78;87.83
15529;BME280;7866;52.280;9.500;2023-04-25T03:59:21;99535.28;;;6.93;87.74
15529;BME280;7866;52.280;9.500;2023-04-25T04:04:22;99538.63;;;6.87;87.29
15529;BME280;7866;52.280;9.500;2023-04-25T04:09:25;99541.63;;;6.92;87.81
15529;BME280;7866;52.280;9.500;2023-04-25T04:14:28;99544.94;;;6.94;87.92
15529;BME280;7866;52.280;9.500;2023-04-25T04:19:29;99550.28;;;7.02;88.09
15529;BME280;7866;52.280;9.500;2023-04-25T04:24:32;99563.25;;;6.97;87.30
15529;BME280;7866;52.280;9.500;2023-04-25T04:29:34;99563.44;;;6.96;87.29
15529;BME280;7866;52.280;9.500;2023-04-25T04:34:36;99575.22;;;6.93;86.82
15529;BME280;7866;52.280;9.500;2023-04-25T04:39:40;99576.72;;;6.96;86.57
15529;BME280;7866;52.280;9.500;2023-04-25T04:44:42;99584.22;;;6.92;85.82
15529;BME280;7866;52.280;9.500;2023-04-25T04:49:44;99592.84;;;6.94;86.29
15529;BME280;7866;52.280;9.500;2023-04-25T04:54:47;99594.22;;;6.98;85.18
15529;BME280;7866;52.280;9.500;2023-04-25T04:59:49;99603.84;;;6.91;84.29
15529;BME280;7866;52.280;9.500;2023-04-25T05:04:51;99606.69;;;7.14;83.77
15529;BME280;7866;52.280;9.500;2023-04-25T05:09:54;99614.66;;;7.14;83.71
15529;BME280;7866;52.280;9.500;2023-04-25T05:14:57;99618.72;;;7.34;82.99
15529;BME280;7866;52.280;9.500;2023-04-25T05:19:59;99629.50;;;7.49;82.55
15529;BME280;7866;52.280;9.500;2023-04-25T05:25:02;99630.34;;;7.41;82.23
15529;BME280;7866;52.280;9.500;2023-04-25T05:30:05;99645.34;;;7.51;81.97
15529;BME280;7866;52.280;9.500;2023-04-25T05:35:07;99649.16;;;7.32;81.15
15529;BME280;7866;52.280;9.500;2023-04-25T05:40:11;99649.34;;;7.38;82.34
15529;BME280;7866;52.280;9.500;2023-04-25T05:45:13;99651.00;;;7.31;81.03
15529;BME280;7866;52.280;9.500;2023-04-25T05:50:14;99656.31;;;7.39;81.45
15529;BME280;7866;52.280;9.500;2023-04-25T05:55:17;99667.16;;;7.46;80.90
15529;BME280;7866;52.280;9.500;2023-04-25T06:00:19;99668.50;;;7.50;81.12
15529;BME280;7866;52.280;9.500;2023-04-25T06:05:22;99682.31;;;7.70;80.78
15529;BME280;7866;52.280;9.500;2023-04-25T06:10:26;99690.78;;;8.06;79.97
15529;BME280;7866;52.280;9.500;2023-04-25T06:15:28;99694.19;;;8.56;78.35
15529;BME280;7866;52.280;9.500;2023-04-25T06:20:29;99684.06;;;8.35;77.06
15529;BME280;7866;52.280;9.500;2023-04-25T06:25:32;99693.44;;;7.82;77.61
15529;BME280;7866;52.280;9.500;2023-04-25T06:30:34;99695.13;;;8.07;77.87
15529;BME280;7866;52.280;9.500;2023-04-25T06:35:36;99705.38;;;8.51;77.90
15529;BME280;7866;52.280;9.500;2023-04-25T06:40:39;99695.34;;;8.61;77.21
15529;BME280;7866;52.280;9.500;2023-04-25T06:45:40;99709.38;;;8.55;76.14
15529;BME280;7866;52.280;9.500;2023-04-25T06:50:42;99703.41;;;8.84;75.58
15529;BME280;7866;52.280;9.500;2023-04-25T06:55:45;99707.03;;;8.52;74.06
15529;BME280;7866;52.280;9.500;2023-04-25T07:00:47;99703.13;;;8.79;74.14
15529;BME280;7866;52.280;9.500;2023-04-25T07:05:49;99709.41;;;8.31;72.47
15529;BME280;7866;52.280;9.500;2023-04-25T07:10:52;99709.31;;;9.11;71.45
15529;BME280;7866;52.280;9.500;2023-04-25T07:15:53;99727.03;;;8.64;70.29
15529;BME280;7866;52.280;9.500;2023-04-25T07:20:56;99720.63;;;8.18;72.53
15529;BME280;7866;52.280;9.500;2023-04-25T07:25:59;99730.53;;;8.57;73.34
15529;BME280;7866;52.280;9.500;2023-04-25T07:31:00;99724.47;;;8.79;71.92
15529;BME280;7866;52.280;9.500;2023-04-25T07:36:03;99735.81;;;8.81;71.99
15529;BME280;7866;52.280;9.500;2023-04-25T07:41:06;99739.59;;;8.48;70.75
15529;BME280;7866;52.280;9.500;2023-04-25T07:46:07;99743.25;;;8.55;71.98
15529;BME280;7866;52.280;9.500;2023-04-25T07:51:09;99756.34;;;8.81;71.12
15529;BME280;7866;52.280;9.500;2023-04-25T07:56:12;99756.19;;;9.13;70.53
15529;BME280;7866;52.280;9.500;2023-04-25T08:01:14;99761.66;;;8.81;67.25
15529;BME280;7866;52.280;9.500;2023-04-25T08:06:15;99768.91;;;9.11;68.10
15529;BME280;7866;52.280;9.500;2023-04-25T08:11:18;99781.69;;;8.85;64.62
15529;BME280;7866;52.280;9.500;2023-04-25T08:16:20;99797.19;;;8.98;64.97
15529;BME280;7866;52.280;9.500;2023-04-25T08:21:22;99779.19;;;9.62;62.95
15529;BME280;7866;52.280;9.500;2023-04-25T08:26:25;99779.97;;;9.94;63.33
15529;BME280;7866;52.280;9.500;2023-04-25T08:31:26;99787.28;;;9.69;62.94
15529;BME280;7866;52.280;9.500;2023-04-25T08:36:28;99783.44;;;10.17;57.74
15529;BME280;7866;52.280;9.500;2023-04-25T08:41:31;99808.59;;;9.23;62.74
15529;BME280;7866;52.280;9.500;2023-04-25T08:46:33;99821.69;;;9.01;63.74
15529;BME280;7866;52.280;9.500;2023-04-25T08:51:36;99849.50;;;8.43;59.23
15529;BME280;7866;52.280;9.500;2023-04-25T08:56:48;99816.31;;;9.18;61.54
15529;BME280;7866;52.280;9.500;2023-04-25T09:01:49;99818.19;;;10.25;57.76
15529;BME280;7866;52.280;9.500;2023-04-25T09:06:53;99823.50;;;9.79;58.91
15529;BME280;7866;52.280;9.500;2023-04-25T09:11:56;99848.38;;;9.09;58.59
15529;BME280;7866;52.280;9.500;2023-04-25T09:17:01;99854.38;;;9.20;59.56
15529;BME280;7866;52.280;9.500;2023-04-25T09:22:04;99847.19;;;10.36;58.77
15529;BME280;7866;52.280;9.500;2023-04-25T09:27:09;99847.53;;;10.56;57.17
15529;BME280;7866;52.280;9.500;2023-04-25T09:32:14;99857.97;;;10.05;59.00
15529;BME280;7866;52.280;9.500;2023-04-25T09:37:18;99864.78;;;9.77;58.88
15529;BME280;7866;52.280;9.500;2023-04-25T09:42:23;99870.81;;;9.79;56.62
15529;BME280;7866;52.280;9.500;2023-04-25T09:47:26;99867.84;;;10.28;57.87
15529;BME280;7866;52.280;9.500;2023-04-25T09:52:28;99869.00;;;11.75;54.95
15529;BME280;7866;52.280;9.500;2023-04-25T09:57:32;99865.88;;;11.56;53.30
15529;BME280;7866;52.280;9.500;2023-04-25T10:02:34;99858.47;;;11.58;53.82
15529;BME280;7866;52.280;9.500;2023-04-25T10:07:40;99870.09;;;10.77;55.96
15529;BME280;7866;52.280;9.500;2023-04-25T10:12:44;99889.84;;;9.84;57.10
15529;BME280;7866;52.280;9.500;2023-04-25T10:17:47;99891.38;;;9.78;57.54
15529;BME280;7866;52.280;9.500;2023-04-25T10:22:54;99887.53;;;10.04;55.51
15529;BME280;7866;52.280;9.500;2023-04-25T10:27:59;99892.84;;;10.96;55.33
15529;BME280;7866;52.280;9.500;2023-04-25T10:33:01;99886.22;;;10.54;55.88
15529;BME280;7866;52.280;9.500;2023-04-25T10:38:04;99898.19;;;10.12;55.86
15529;BME280;7866;52.280;9.500;2023-04-25T10:43:36;99886.25;;;10.69;54.96
15529;BME280;7866;52.280;9.500;2023-04-25T10:48:44;99893.44;;;11.21;53.97
15529;BME280;7866;52.280;9.500;2023-04-25T10:53:46;99900.53;;;10.15;54.52
15529;BME280;7866;52.280;9.500;2023-04-25T10:58:50;99895.63;;;10.27;55.28
15529;BME280;7866;52.280;9.500;2023-04-25T11:03:57;99896.88;;;10.08;54.58
15529;BME280;7866;52.280;9.500;2023-04-25T11:09:00;99911.00;;;10.25;55.81
15529;BME280;7866;52.280;9.500;2023-04-25T11:14:04;99912.34;;;10.21;56.97
15529;BME280;7866;52.280;9.500;2023-04-25T11:19:05;99916.03;;;10.20;57.11
15529;BME280;7866;52.280;9.500;2023-04-25T11:24:07;99932.53;;;10.00;56.64
15529;BME280;7866;52.280;9.500;2023-04-25T11:29:10;99942.41;;;9.60;58.46
15529;BME280;7866;52.280;9.500;2023-04-25T11:34:16;99960.41;;;9.19;62.47
15529;BME280;7866;52.280;9.500;2023-04-25T11:39:18;99970.44;;;8.68;63.46
15529;BME280;7866;52.280;9.500;2023-04-25T11:44:21;99963.09;;;9.11;64.00
15529;BME280;7866;52.280;9.500;2023-04-25T11:49:23;99961.84;;;9.46;62.66
15529;BME280;7866;52.280;9.500;2023-04-25T11:54:26;99978.84;;;9.53;62.05
15529;BME280;7866;52.280;9.500;2023-04-25T11:59:29;99954.03;;;9.84;60.28
15529;BME280;7866;52.280;9.500;2023-04-25T12:04:31;99956.03;;;11.28;58.28
15529;BME280;7866;52.280;9.500;2023-04-25T12:09:33;99953.56;;;11.41;55.06
15529;BME280;7866;52.280;9.500;2023-04-25T12:14:36;99961.50;;;10.97;52.01
15529;BME280;7866;52.280;9.500;2023-04-25T12:19:38;99959.47;;;11.81;49.47
15529;BME280;7866;52.280;9.500;2023-04-25T12:24:44;99976.53;;;11.21;47.07
15529;BME280;7866;52.280;9.500;2023-04-25T12:29:55;99950.38;;;11.52;47.73
15529;BME280;7866;52.280;9.500;2023-04-25T12:34:57;99960.31;;;11.67;50.41
15529;BME280;7866;52.280;9.500;2023-04-25T12:39:58;99967.13;;;10.64;51.12
15529;BME280;7866;52.280;9.500;2023-04-25T12:45:02;99975.34;;;10.40;52.49
15529;BME280;7866;52.280;9.500;2023-04-25T12:50:04;99997.56;;;9.61;58.50
15529;BME280;7866;52.280;9.500;2023-04-25T12:55:06;100024.50;;;9.35;60.64
15529;BME280;7866;52.280;9.500;2023-04-25T13:00:10;100024.94;;;8.49;63.95
15529;BME280;7866;52.280;9.500;2023-04-25T13:05:15;100017.13;;;8.05;66.66
15529;BME280;7866;52.280;9.500;2023-04-25T13:10:35;100022.47;;;8.13;67.57
15529;BME280;7866;52.280;9.500;2023-04-25T13:15:40;100002.63;;;8.50;67.49
15529;BME280;7866;52.280;9.500;2023-04-25T13:20:42;100001.31;;;9.20;66.51
15529;BME280;7866;52.280;9.500;2023-04-25T13:25:43;100014.91;;;9.74;63.78
15529;BME280;7866;52.280;9.500;2023-04-25T13:30:47;100006.97;;;10.36;61.56
15529;BME280;7866;52.280;9.500;2023-04-25T13:35:49;99993.13;;;11.01;58.63
15529;BME280;7866;52.280;9.500;2023-04-25T13:40:54;99986.31;;;11.81;57.57
15529;BME280;7866;52.280;9.500;2023-04-25T13:45:57;99981.09;;;11.65;55.72
15529;BME280;7866;52.280;9.500;2023-04-25T13:50:58;99981.88;;;10.60;57.05
15529;BME280;7866;52.280;9.500;2023-04-25T13:56:00;100010.50;;;10.59;59.64
15529;BME280;7866;52.280;9.500;2023-04-25T14:01:04;100014.91;;;9.74;64.25
15529;BME280;7866;52.280;9.500;2023-04-25T14:06:06;100026.84;;;9.38;67.27
15529;BME280;7866;52.280;9.500;2023-04-25T14:11:08;100017.66;;;9.33;67.26
15529;BME280;7866;52.280;9.500;2023-04-25T14:16:11;100024.38;;;9.84;66.84
15529;BME280;7866;52.280;9.500;2023-04-25T14:21:13;100015.69;;;10.38;66.40
15529;BME280;7866;52.280;9.500;2023-04-25T14:26:15;100004.69;;;10.79;63.46
15529;BME280;7866;52.280;9.500;2023-04-25T14:31:18;99999.13;;;11.41;60.59
15529;BME280;7866;52.280;9.500;2023-04-25T14:36:20;100006.63;;;12.20;57.79
15529;BME280;7866;52.280;9.500;2023-04-25T14:41:21;100014.16;;;12.10;56.10
15529;BME280;7866;52.280;9.500;2023-04-25T14:46:25;100007.72;;;11.51;57.22
15529;BME280;7866;52.280;9.500;2023-04-25T14:51:27;100023.59;;;11.91;55.65
15529;BME280;7866;52.280;9.500;2023-04-25T14:56:28;100033.84;;;10.97;53.71
15529;BME280;7866;52.280;9.500;2023-04-25T15:01:32;100043.03;;;10.79;50.98
15529;BME280;7866;52.280;9.500;2023-04-25T15:06:33;100046.63;;;10.64;52.31
15529;BME280;7866;52.280;9.500;2023-04-25T15:11:35;100048.09;;;10.74;53.47
15529;BME280;7866;52.280;9.500;2023-04-25T15:16:38;100036.44;;;11.66;52.41
15529;BME280;7866;52.280;9.500;2023-04-25T15:21:40;100036.16;;;12.20;51.23
15529;BME280;7866;52.280;9.500;2023-04-25T15:26:42;100037.09;;;11.30;53.31
15529;BME280;7866;52.280;9.500;2023-04-25T15:31:45;100051.75;;;10.50;55.34
15529;BME280;7866;52.280;9.500;2023-04-25T15:36:46;100041.47;;;10.85;55.86
15529;BME280;7866;52.280;9.500;2023-04-25T15:41:49;100059.00;;;10.65;53.61
15529;BME280;7866;52.280;9.500;2023-04-25T15:46:52;100061.78;;;10.48;52.88
15529;BME280;7866;52.280;9.500;2023-04-25T15:51:54;100070.06;;;10.30;53.77
15529;BME280;7866;52.280;9.500;2023-04-25T15:56:56;100075.63;;;10.12;53.46
15529;BME280;7866;52.280;9.500;2023-04-25T16:01:59;100084.00;;;10.01;55.90
15529;BME280;7866;52.280;9.500;2023-04-25T16:07:00;100079.22;;;9.88;55.18
15529;BME280;7866;52.280;9.500;2023-04-25T16:12:03;100075.44;;;10.22;56.52
15529;BME280;7866;52.280;9.500;2023-04-25T16:17:06;100079.31;;;10.59;55.05
15529;BME280;7866;52.280;9.500;2023-04-25T16:22:08;100082.81;;;10.59;55.83
15529;BME280;7866;52.280;9.500;2023-04-25T16:27:12;100073.25;;;10.34;55.74
15529;BME280;7866;52.280;9.500;2023-04-25T16:32:15;100072.44;;;10.56;55.89
15529;BME280;7866;52.280;9.500;2023-04-25T16:37:17;100089.50;;;10.16;56.53
15529;BME280;7866;52.280;9.500;2023-04-25T16:42:19;100090.41;;;9.84;57.64
15529;BME280;7866;52.280;9.500;2023-04-25T16:47:21;100092.28;;;9.67;58.61
15529;BME280;7866;52.280;9.500;2023-04-25T16:52:24;100110.19;;;9.34;61.28
15529;BME280;7866;52.280;9.500;2023-04-25T16:57:26;100114.13;;;8.81;64.43
15529;BME280;7866;52.280;9.500;2023-04-25T17:02:29;100112.44;;;8.72;66.51
15529;BME280;7866;52.280;9.500;2023-04-25T17:07:30;100118.56;;;8.56;66.44
15529;BME280;7866;52.280;9.500;2023-04-25T17:12:32;100116.00;;;8.38;65.83
15529;BME280;7866;52.280;9.500;2023-04-25T17:17:35;100107.88;;;8.56;65.12
15529;BME280;7866;52.280;9.500;2023-04-25T17:22:36;100103.94;;;8.76;64.33
15529;BME280;7866;52.280;9.500;2023-04-25T17:27:38;100121.78;;;8.76;63.86
15529;BME280;7866;52.280;9.500;2023-04-25T17:32:41;100122.56;;;8.52;63.59
15529;BME280;7866;52.280;9.500;2023-04-25T17:37:43;100133.75;;;8.29;63.38
15529;BME280;7866;52.280;9.500;2023-04-25T17:42:45;100129.22;;;8.22;62.89
15529;BME280;7866;52.280;9.500;2023-04-25T17:47:48;100130.22;;;8.21;63.34
15529;BME280;7866;52.280;9.500;2023-04-25T17:52:50;100145.38;;;8.20;63.48
15529;BME280;7866;52.280;9.500;2023-04-25T17:57:54;100157.50;;;8.06;63.89
15529;BME280;7866;52.280;9.500;2023-04-25T18:02:57;100151.16;;;8.07;64.00
15529;BME280;7866;52.280;9.500;2023-04-25T18:07:59;100159.31;;;8.06;64.26
15529;BME280;7866;52.280;9.500;2023-04-25T18:13:01;100164.78;;;8.04;63.92
15529;BME280;7866;52.280;9.500;2023-04-25T18:18:04;100160.06;;;7.90;64.30
15529;BME280;7866;52.280;9.500;2023-04-25T18:23:14;100173.44;;;7.98;64.54
15529;BME280;7866;52.280;9.500;2023-04-25T18:28:16;100180.75;;;7.96;64.91
15529;BME280;7866;52.280;9.500;2023-04-25T18:33:20;100187.38;;;7.92;65.11
15529;BME280;7866;52.280;9.500;2023-04-25T18:38:22;100196.63;;;7.80;65.41
15529;BME280;7866;52.280;9.500;2023-04-25T18:43:24;100200.97;;;7.81;65.73
15529;BME280;7866;52.280;9.500;2023-04-25T18:48:27;100210.31;;;7.85;65.65
15529;BME280;7866;52.280;9.500;2023-04-25T18:53:29;100216.81;;;7.82;65.43
15529;BME280;7866;52.280;9.500;2023-04-25T18:58:30;100218.78;;;7.98;65.09
15529;BME280;7866;52.280;9.500;2023-04-25T19:03:34;100222.03;;;7.92;64.72
15529;BME280;7866;52.280;9.500;2023-04-25T19:08:36;100234.91;;;7.97;64.90
15529;BME280;7866;52.280;9.500;2023-04-25T19:13:37;100245.56;;;7.97;65.01
15529;BME280;7866;52.280;9.500;2023-04-25T19:18:40;100245.94;;;8.02;64.93
15529;BME280;7866;52.280;9.500;2023-04-25T19:23:42;100263.09;;;7.99;66.06
15529;BME280;7866;52.280;9.500;2023-04-25T19:28:43;100256.41;;;7.95;66.66
15529;BME280;7866;52.280;9.500;2023-04-25T19:33:46;100261.75;;;7.95;67.10
15529;BME280;7866;52.280;9.500;2023-04-25T19:38:48;100268.84;;;7.86;67.92
15529;BME280;7866;52.280;9.500;2023-04-25T19:43:50;100260.97;;;7.85;67.20
15529;BME280;7866;52.280;9.500;2023-04-25T19:48:53;100275.53;;;7.73;67.36
15529;BME280;7866;52.280;9.500;2023-04-25T19:53:55;100283.41;;;7.74;67.95
15529;BME280;7866;52.280;9.500;2023-04-25T19:58:56;100280.94;;;7.81;67.74
15529;BME280;7866;52.280;9.500;2023-04-25T20:03:59;100282.53;;;7.74;67.81
15529;BME280;7866;52.280;9.500;2023-04-25T20:09:01;100290.28;;;7.49;68.14
15529;BME280;7866;52.280;9.500;2023-04-25T20:14:03;100289.31;;;7.50;68.51
15529;BME280;7866;52.280;9.500;2023-04-25T20:19:06;100290.72;;;7.27;68.73
15529;BME280;7866;52.280;9.500;2023-04-25T20:24:08;100298.66;;;7.09;68.99
15529;BME280;7866;52.280;9.500;2023-04-25T20:29:10;100299.16;;;6.95;69.44
15529;BME280;7866;52.280;9.500;2023-04-25T20:34:14;100297.22;;;6.87;69.73
15529;BME280;7866;52.280;9.500;2023-04-25T20:39:15;100304.94;;;6.80;68.26
15529;BME280;7866;52.280;9.500;2023-04-25T20:44:17;100320.63;;;6.74;68.53
15529;BME280;7866;52.280;9.500;2023-04-25T20:49:23;100322.63;;;6.72;67.58
15529;BME280;7866;52.280;9.500;2023-04-25T20:54:24;100327.25;;;6.70;67.57
15529;BME280;7866;52.280;9.500;2023-04-25T20:59:26;100325.72;;;6.57;67.47
15529;BME280;7866;52.280;9.500;2023-04-25T21:04:30;100317.63;;;6.49;66.90
15529;BME280;7866;52.280;9.500;2023-04-25T21:09:31;100333.47;;;6.41;67.62
15529;BME280;7866;52.280;9.500;2023-04-25T21:14:33;100327.59;;;6.47;68.00
15529;BME280;7866;52.280;9.500;2023-04-25T21:19:36;100324.25;;;6.35;67.31
15529;BME280;7866;52.280;9.500;2023-04-25T21:24:38;100327.75;;;6.16;68.54
15529;BME280;7866;52.280;9.500;2023-04-25T21:29:39;100329.31;;;6.19;68.36
15529;BME280;7866;52.280;9.500;2023-04-25T21:34:42;100329.44;;;6.17;68.81
15529;BME280;7866;52.280;9.500;2023-04-25T21:39:44;100331.53;;;6.04;67.94
15529;BME280;7866;52.280;9.500;2023-04-25T21:44:47;100335.88;;;6.05;68.77
15529;BME280;7866;52.280;9.500;2023-04-25T21:49:50;100322.84;;;6.02;69.13
15529;BME280;7866;52.280;9.500;2023-04-25T21:54:52;100330.13;;;6.10;68.82
15529;BME280;7866;52.280;9.500;2023-04-25T21:59:54;100323.56;;;6.04;69.35
15529;BME280;7866;52.280;9.500;2023-04-25T22:04:57;100333.22;;;6.05;69.06
15529;BME280;7866;52.280;9.500;2023-04-25T22:09:58;100335.03;;;6.05;69.53
15529;BME280;7866;52.280;9.500;2023-04-25T22:15:00;100343.28;;;6.02;69.43
15529;BME280;7866;52.280;9.500;2023-04-25T22:20:05;100348.34;;;5.95;69.40
15529;BME280;7866;52.280;9.500;2023-04-25T22:25:10;100350.53;;;5.90;68.87
15529;BME280;7866;52.280;9.500;2023-04-25T22:30:12;100352.34;;;5.89;69.53
15529;BME280;7866;52.280;9.500;2023-04-25T22:35:15;100356.13;;;5.87;69.55
15529;BME280;7866;52.280;9.500;2023-04-25T22:40:17;100352.19;;;5.72;69.28
15529;BME280;7866;52.280;9.500;2023-04-25T22:45:18;100353.19;;;5.71;69.92
15529;BME280;7866;52.280;9.500;2023-04-25T22:50:21;100357.09;;;5.66;70.01
15529;BME280;7866;52.280;9.500;2023-04-25T22:55:23;100356.09;;;5.67;71.15
15529;BME280;7866;52.280;9.500;2023-04-25T23:00:26;100363.63;;;5.53;70.70
15529;BME280;7866;52.280;9.500;2023-04-25T23:05:30;100366.28;;;5.53;70.91
15529;BME280;7866;52.280;9.500;2023-04-25T23:10:33;100363.16;;;5.38;70.82
15529;BME280;7866;52.280;9.500;2023-04-25T23:15:36;100375.75;;;5.46;71.17
15529;BME280;7866;52.280;9.500;2023-04-25T23:20:39;100373.81;;;5.48;70.31
15529;BME280;7866;52.280;9.500;2023-04-25T23:25:40;100365.00;;;5.47;70.77
15529;BME280;7866;52.280;9.500;2023-04-25T23:30:42;100368.63;;;5.46;70.79
15529;BME280;7866;52.280;9.500;2023-04-25T23:35:45;100370.84;;;5.41;71.49
15529;BME280;7866;52.280;9.500;2023-04-25T23:40:46;100377.41;;;5.37;71.03
15529;BME280;7866;52.280;9.500;2023-04-25T23:45:48;100375.56;;;5.28;71.58
15529;BME280;7866;52.280;9.500;2023-04-25T23:51:09;100376.56;;;5.27;71.58
15529;BME280;7866;52.280;9.500;2023-04-25T23:56:10;100374.75;;;5.37;71.70
